Time;durP1;ratioP1;P1;durP2;ratioP2;P2;SDS_P1;SDS_P2;PMS_P1;PMS_P2;Temp;Humidity;BMP_temperature;BMP_pressure;BME280_temperature;BME280_humidity;BME280_pressure;Samples;Min_cycle;Max_cycle;Signal;HPM_P1;HPM_P2
2023/05/30 00:00:33;;;;;;;17.67;4.43;;;;;;;;;;4872350;29;20052;-87
2023/05/30 00:03:00;;;;;;;15.63;4.97;;;;;;;;;;4872318;29;20056;-87
2023/05/30 00:05:26;;;;;;;15.20;4.07;;;;;;;;;;4873723;29;20076;-88
2023/05/30 00:07:52;;;;;;;15.23;4.15;;;;;;;;;;4871330;29;20040;-88
2023/05/30 00:10:18;;;;;;;12.20;4.03;;;;;;;;;;4856689;29;21721;-88
2023/05/30 00:12:46;;;;;;;13.25;4.00;;;;;;;;;;4852218;29;20048;-87
2023/05/30 00:15:13;;;;;;;15.50;4.40;;;;;;;;;;4885722;29;20080;-88
2023/05/30 00:17:39;;;;;;;10.00;3.67;;;;;;;;;;4876408;29;20055;-88
2023/05/30 00:20:08;;;;;;;13.88;4.38;;;;;;;;;;4873356;29;20051;-88
2023/05/30 00:22:37;;;;;;;13.00;3.63;;;;;;;;;;4862999;29;20485;-88
2023/05/30 00:25:05;;;;;;;;;;;;;;;;;;4860443;29;20075;-87
2023/05/30 00:27:31;;;;;;;14.57;4.45;;;;;;;;;;4870033;29;19976;-88
2023/05/30 00:29:57;;;;;;;12.70;3.45;;;;;;;;;;4864756;29;20055;-87
2023/05/30 00:32:23;;;;;;;11.98;3.75;;;;;;;;;;4865048;29;20111;-87
2023/05/30 00:34:49;;;;;;;11.57;3.97;;;;;;;;;;4866928;29;20375;-87
2023/05/30 00:37:16;;;;;;;13.68;4.32;;;;;;;;;;4847824;29;20044;-88
2023/05/30 00:39:42;;;;;;;9.63;3.65;;;;;;;;;;4864806;29;20170;-88
2023/05/30 00:42:08;;;;;;;12.27;3.75;;;;;;;;;;4881382;29;20056;-88
2023/05/30 00:44:34;;;;;;;14.20;3.75;;;;;;;;;;4854053;29;20040;-88
2023/05/30 00:47:00;;;;;;;12.02;3.88;;;;;;;;;;4841180;29;20044;-88
2023/05/30 00:49:26;;;;;;;10.85;4.30;;;;;;;;;;4856543;29;20051;-88
2023/05/30 00:51:53;;;;;;;10.70;3.97;;;;;;;;;;4853201;29;20050;-88
2023/05/30 00:54:19;;;;;;;13.48;4.75;;;;;;;;;;4857501;29;20044;-88
2023/05/30 00:56:45;;;;;;;9.00;4.03;;;;;;;;;;4859901;29;20151;-88
2023/05/30 00:59:11;;;;;;;16.45;4.30;;;;;;;;;;4861260;29;20321;-88
2023/05/30 01:01:37;;;;;;;9.13;4.18;;;;;;;;;;4835557;29;20116;-88
2023/05/30 01:04:04;;;;;;;12.45;4.15;;;;;;;;;;4869319;29;20151;-88
2023/05/30 01:06:30;;;;;;;12.25;4.32;;;;;;;;;;4856207;29;20490;-88
2023/05/30 01:08:58;;;;;;;12.60;4.60;;;;;;;;;;4863350;29;20048;-88
2023/05/30 01:11:39;;;;;;;12.43;4.38;;;;;;;;;;4848185;29;20048;-88
2023/05/30 01:14:06;;;;;;;12.32;4.00;;;;;;;;;;4873538;29;20044;-88
2023/05/30 01:16:32;;;;;;;12.35;3.72;;;;;;;;;;4851732;29;20052;-88
2023/05/30 01:19:09;;;;;;;10.82;3.80;;;;;;;;;;4845611;29;20048;-88
2023/05/30 01:21:36;;;;;;;10.65;4.45;;;;;;;;;;4848105;29;20044;-88
2023/05/30 01:24:07;;;;;;;13.23;4.40;;;;;;;;;;4858789;29;20554;-88
2023/05/30 01:26:48;;;;;;;11.73;3.55;;;;;;;;;;4862624;29;20044;-88
2023/05/30 01:29:17;;;;;;;12.18;4.32;;;;;;;;;;4872478;29;20029;-88
2023/05/30 01:31:43;;;;;;;12.77;4.28;;;;;;;;;;4854962;29;20103;-88
2023/05/30 01:34:09;;;;;;;15.25;4.50;;;;;;;;;;4861406;29;20401;-88
2023/05/30 01:36:36;;;;;;;13.60;4.15;;;;;;;;;;4851612;29;20560;-88
2023/05/30 01:39:02;;;;;;;13.90;3.83;;;;;;;;;;4857040;29;20052;-88
2023/05/30 01:41:31;;;;;;;6.93;3.28;;;;;;;;;;4843017;29;20051;-88
2023/05/30 01:44:03;;;;;;;5.80;3.60;;;;;;;;;;4843610;29;20721;-88
2023/05/30 01:46:30;;;;;;;7.22;3.80;;;;;;;;;;4859180;29;20397;-88
2023/05/30 01:49:03;;;;;;;15.07;3.90;;;;;;;;;;4872464;29;20047;-88
2023/05/30 01:51:43;;;;;;;6.40;4.00;;;;;;;;;;4857613;29;20044;-88
2023/05/30 01:54:09;;;;;;;11.63;3.92;;;;;;;;;;4868504;29;23574;-88
2023/05/30 01:56:35;;;;;;;15.55;3.63;;;;;;;;;;4851882;29;20044;-88
2023/05/30 01:59:01;;;;;;;10.57;4.10;;;;;;;;;;4856827;29;20048;-88
2023/05/30 02:01:27;;;;;;;9.50;3.47;;;;;;;;;;4848048;29;20065;-88
2023/05/30 02:03:54;;;;;;;15.85;4.30;;;;;;;;;;4848781;29;20060;-88
2023/05/30 02:06:20;;;;;;;8.65;4.10;;;;;;;;;;4851031;29;20049;-88
2023/05/30 02:08:46;;;;;;;7.43;3.72;;;;;;;;;;4862020;29;20067;-88
2023/05/30 02:11:12;;;;;;;9.35;4.30;;;;;;;;;;4867148;29;20102;-88
2023/05/30 02:13:38;;;;;;;8.50;3.97;;;;;;;;;;4860995;29;20041;-88
2023/05/30 02:16:05;;;;;;;11.23;3.65;;;;;;;;;;4851227;29;20056;-88
2023/05/30 02:18:31;;;;;;;16.77;4.70;;;;;;;;;;4854019;29;20049;-88
2023/05/30 02:20:57;;;;;;;11.00;3.92;;;;;;;;;;4839381;29;20088;-88
2023/05/30 02:23:23;;;;;;;9.10;4.05;;;;;;;;;;4840376;29;20379;-88
2023/05/30 02:25:50;;;;;;;13.38;4.15;;;;;;;;;;4851985;29;20099;-88
2023/05/30 02:28:16;;;;;;;11.88;3.90;;;;;;;;;;4852518;29;21099;-88
2023/05/30 02:30:42;;;;;;;10.10;4.15;;;;;;;;;;4847190;29;20064;-88
2023/05/30 02:33:08;;;;;;;11.18;4.03;;;;;;;;;;4840516;29;20048;-88
2023/05/30 02:35:35;;;;;;;12.70;4.40;;;;;;;;;;4851352;29;20492;-87
2023/05/30 02:38:01;;;;;;;9.15;3.92;;;;;;;;;;4846808;29;20079;-88
2023/05/30 02:40:27;;;;;;;8.80;4.30;;;;;;;;;;4854170;29;20052;-87
2023/05/30 02:42:53;;;;;;;10.25;4.18;;;;;;;;;;4853586;29;20566;-88
2023/05/30 02:45:19;;;;;;;9.00;3.65;;;;;;;;;;4849598;29;20877;-88
2023/05/30 02:47:45;;;;;;;12.00;4.20;;;;;;;;;;4847550;29;20518;-88
2023/05/30 02:50:11;;;;;;;13.90;3.80;;;;;;;;;;4866311;29;20057;-88
2023/05/30 02:52:37;;;;;;;10.23;4.03;;;;;;;;;;4849876;29;20080;-88
2023/05/30 02:55:04;;;;;;;9.48;4.10;;;;;;;;;;4840155;29;20507;-88
2023/05/30 02:57:32;;;;;;;16.75;3.92;;;;;;;;;;4862849;29;20052;-89
2023/05/30 02:59:58;;;;;;;10.73;4.00;;;;;;;;;;4857963;29;20036;-88
2023/05/30 03:02:24;;;;;;;12.63;3.97;;;;;;;;;;4862683;29;20416;-88
2023/05/30 03:04:50;;;;;;;12.95;4.03;;;;;;;;;;4864426;29;21511;-88
2023/05/30 03:07:19;;;;;;;14.30;4.00;;;;;;;;;;4851887;29;20157;-88
2023/05/30 03:09:45;;;;;;;8.93;3.85;;;;;;;;;;4861408;29;20044;-88
2023/05/30 03:12:11;;;;;;;14.98;4.35;;;;;;;;;;4881886;29;20044;-88
2023/05/30 03:14:37;;;;;;;12.48;4.38;;;;;;;;;;4847877;29;20383;-88
2023/05/30 03:17:05;;;;;;;9.90;4.18;;;;;;;;;;4857189;29;20049;-88
2023/05/30 03:19:31;;;;;;;11.65;4.80;;;;;;;;;;4866062;29;20075;-88
2023/05/30 03:21:57;;;;;;;10.68;4.28;;;;;;;;;;4841421;29;20454;-88
2023/05/30 03:24:23;;;;;;;8.43;4.07;;;;;;;;;;4855343;29;20072;-87
2023/05/30 03:26:49;;;;;;;10.75;4.10;;;;;;;;;;4851079;29;20041;-88
2023/05/30 03:29:16;;;;;;;12.15;4.43;;;;;;;;;;4866985;29;20052;-88
2023/05/30 03:31:43;;;;;;;8.85;4.55;;;;;;;;;;4863050;29;20075;-88
2023/05/30 03:34:09;;;;;;;12.57;4.25;;;;;;;;;;4844048;29;20473;-88
2023/05/30 03:36:35;;;;;;;10.23;4.10;;;;;;;;;;4839065;29;20380;-88
2023/05/30 03:39:01;;;;;;;8.60;4.38;;;;;;;;;;4842973;29;20049;-88
2023/05/30 03:41:27;;;;;;;14.27;4.68;;;;;;;;;;4843127;29;20045;-88
2023/05/30 03:43:53;;;;;;;12.85;5.03;;;;;;;;;;4864618;29;20049;-88
2023/05/30 03:46:21;;;;;;;10.20;4.68;;;;;;;;;;4840926;29;20041;-88
2023/05/30 03:48:47;;;;;;;10.40;4.10;;;;;;;;;;4846097;29;20083;-88
2023/05/30 03:51:13;;;;;;;12.90;4.53;;;;;;;;;;4852237;29;20040;-89
2023/05/30 03:53:39;;;;;;;12.80;4.65;;;;;;;;;;4863548;29;20044;-89
2023/05/30 03:56:06;;;;;;;9.00;4.05;;;;;;;;;;4853589;29;20040;-88
2023/05/30 03:58:32;;;;;;;15.60;4.68;;;;;;;;;;4865401;29;20806;-88
2023/05/30 04:01:00;;;;;;;10.32;4.95;;;;;;;;;;4853010;29;20045;-88
2023/05/30 04:03:28;;;;;;;13.30;4.28;;;;;;;;;;4870255;29;20053;-88
2023/05/30 04:05:55;;;;;;;12.15;4.72;;;;;;;;;;4834599;29;20528;-88
2023/05/30 04:08:22;;;;;;;12.07;4.57;;;;;;;;;;4874438;29;20049;-88
2023/05/30 04:10:48;;;;;;;12.48;4.53;;;;;;;;;;4853300;29;20036;-88
2023/05/30 04:13:14;;;;;;;14.15;4.43;;;;;;;;;;4851370;29;20129;-87
2023/05/30 04:15:41;;;;;;;11.48;4.85;;;;;;;;;;4874495;29;20554;-87
2023/05/30 04:18:07;;;;;;;13.85;4.38;;;;;;;;;;4846570;29;20465;-88
2023/05/30 04:20:33;;;;;;;9.75;4.57;;;;;;;;;;4848387;29;20041;-88
2023/05/30 04:22:59;;;;;;;10.43;4.55;;;;;;;;;;4870508;29;20040;-88
2023/05/30 04:25:25;;;;;;;11.13;4.40;;;;;;;;;;4876437;29;20128;-88
2023/05/30 04:27:54;;;;;;;10.57;4.05;;;;;;;;;;4870896;29;20045;-88
2023/05/30 04:30:20;;;;;;;10.45;3.95;;;;;;;;;;4875005;29;20093;-88
2023/05/30 04:32:46;;;;;;;11.63;4.72;;;;;;;;;;4864115;29;20041;-88
2023/05/30 04:35:15;;;;;;;9.50;4.50;;;;;;;;;;4857533;29;20049;-89
2023/05/30 04:37:44;;;;;;;14.52;4.70;;;;;;;;;;4854377;29;20087;-89
2023/05/30 04:40:14;;;;;;;16.35;4.63;;;;;;;;;;4872833;29;20063;-89
2023/05/30 04:42:43;;;;;;;14.27;4.22;;;;;;;;;;4859310;29;20040;-88
2023/05/30 04:45:10;;;;;;;10.90;4.50;;;;;;;;;;4846892;29;20041;-89
2023/05/30 04:47:38;;;;;;;11.85;4.13;;;;;;;;;;4865084;29;20052;-88
2023/05/30 04:50:04;;;;;;;;;;;;;;;;;;4851679;29;20045;-88
2023/05/30 04:52:33;;;;;;;11.73;4.10;;;;;;;;;;4867136;29;19931;-89
2023/05/30 04:54:59;;;;;;;13.15;4.15;;;;;;;;;;4869009;29;20136;-88
2023/05/30 04:57:25;;;;;;;9.68;4.45;;;;;;;;;;4872647;29;20045;-88
2023/05/30 04:59:55;;;;;;;11.60;4.22;;;;;;;;;;4865973;29;20053;-88
2023/05/30 05:02:21;;;;;;;15.65;5.45;;;;;;;;;;4848406;29;20757;-88
2023/05/30 05:04:47;;;;;;;13.65;4.30;;;;;;;;;;4868089;29;20033;-88
2023/05/30 05:07:13;;;;;;;11.20;4.43;;;;;;;;;;4848867;29;20393;-88
2023/05/30 05:09:39;;;;;;;10.63;4.47;;;;;;;;;;4863743;29;20447;-88
2023/05/30 05:12:06;;;;;;;14.95;5.03;;;;;;;;;;4867342;29;20093;-88
2023/05/30 05:14:32;;;;;;;14.38;4.32;;;;;;;;;;4859732;29;20067;-89
2023/05/30 05:16:58;;;;;;;13.20;4.50;;;;;;;;;;4866855;29;20060;-90
2023/05/30 05:19:24;;;;;;;13.93;4.32;;;;;;;;;;4858389;29;20052;-89
2023/05/30 05:21:50;;;;;;;11.45;4.40;;;;;;;;;;4848659;29;21327;-88
2023/05/30 05:24:16;;;;;;;11.60;4.60;;;;;;;;;;4857516;29;20044;-89
2023/05/30 05:26:43;;;;;;;9.05;4.28;;;;;;;;;;4840278;29;20047;-88
2023/05/30 05:29:12;;;;;;;16.55;4.53;;;;;;;;;;4869188;29;20518;-88
2023/05/30 05:31:39;;;;;;;15.27;4.05;;;;;;;;;;4851936;29;20037;-88
2023/05/30 05:34:05;;;;;;;11.30;4.38;;;;;;;;;;4852891;29;20045;-89
2023/05/30 05:36:31;;;;;;;13.50;4.18;;;;;;;;;;4849584;29;20044;-89
2023/05/30 05:38:57;;;;;;;12.60;4.15;;;;;;;;;;4855733;29;20458;-88
2023/05/30 05:41:23;;;;;;;12.57;4.03;;;;;;;;;;4873181;29;20664;-89
2023/05/30 05:43:49;;;;;;;10.35;4.40;;;;;;;;;;4841575;29;20045;-89
2023/05/30 05:46:15;;;;;;;15.52;4.35;;;;;;;;;;4849377;29;20041;-89
2023/05/30 05:48:41;;;;;;;13.02;4.38;;;;;;;;;;4837311;29;20045;-89
2023/05/30 05:51:07;;;;;;;10.80;4.38;;;;;;;;;;4850438;29;20097;-90
2023/05/30 05:53:33;;;;;;;15.50;4.20;;;;;;;;;;4870937;29;20037;-89
2023/05/30 05:56:00;;;;;;;11.20;4.20;;;;;;;;;;4875714;23;20047;-92
2023/05/30 06:32:41;;;;;;;12.20;4.10;;;;;;;;;;4889998;29;23181;-89
2023/05/30 06:35:30;;;;;;;12.20;3.97;;;;;;;;;;4893883;29;20127;-88
2023/05/30 06:38:15;;;;;;;11.60;4.07;;;;;;;;;;4858335;29;20424;-89
2023/05/30 06:40:49;;;;;;;10.20;4.13;;;;;;;;;;4841632;29;20067;-89
2023/05/30 06:43:24;;;;;;;10.45;3.60;;;;;;;;;;4836134;29;20055;-88
2023/05/30 06:45:50;;;;;;;10.43;4.28;;;;;;;;;;4850775;29;21725;-89
2023/05/30 06:48:16;;;;;;;9.48;4.45;;;;;;;;;;4844944;29;21632;-89
2023/05/30 06:50:42;;;;;;;11.50;3.88;;;;;;;;;;4843577;29;20419;-89
2023/05/30 06:53:09;;;;;;;10.23;3.90;;;;;;;;;;4858969;29;20057;-89
2023/05/30 06:55:35;;;;;;;7.22;3.67;;;;;;;;;;4840041;29;20087;-88
2023/05/30 06:58:01;;;;;;;6.43;3.25;;;;;;;;;;4856757;29;20166;-88
2023/05/30 07:00:27;;;;;;;6.30;3.53;;;;;;;;;;4855014;29;20045;-89
2023/05/30 07:02:53;;;;;;;7.70;3.80;;;;;;;;;;4827964;29;20065;-89
2023/05/30 07:05:19;;;;;;;8.63;4.03;;;;;;;;;;4834366;29;20198;-88
2023/05/30 07:07:45;;;;;;;12.77;3.88;;;;;;;;;;4854348;29;20457;-88
2023/05/30 07:10:12;;;;;;;9.40;4.03;;;;;;;;;;4877192;29;20036;-89
2023/05/30 07:12:38;;;;;;;9.25;3.60;;;;;;;;;;4855811;29;20055;-88
2023/05/30 07:15:06;;;;;;;6.35;3.25;;;;;;;;;;4878572;29;20147;-89
2023/05/30 07:18:38;;;;;;;8.70;3.20;;;;;;;;;;4884105;29;20048;-89
2023/05/30 07:33:17;;;;;;;;;;;;;;;;;;;;;
2023/05/30 07:39:41;;;;;;;6.65;3.45;;;;;;;;;;5265007;23;20142;-90
2023/05/30 07:42:28;;;;;;;8.43;3.38;;;;;;;;;;4848999;29;20037;-89
2023/05/30 07:45:22;;;;;;;6.15;3.70;;;;;;;;;;4854511;29;20040;-91
2023/05/30 07:51:45;;;;;;;;;;;;;;;;;;;;;
2023/05/30 08:02:25;;;;;;;6.95;3.05;;;;;;;;;;4823954;29;20042;-92
2023/05/30 08:05:03;;;;;;;5.93;2.92;;;;;;;;;;4849015;29;20048;-90
2023/05/30 08:07:35;;;;;;;7.35;3.00;;;;;;;;;;4834272;29;20195;-90
2023/05/30 08:10:07;;;;;;;6.72;2.95;;;;;;;;;;4835494;29;20471;-89
2023/05/30 08:12:36;;;;;;;6.10;2.90;;;;;;;;;;4829516;29;20037;-90
2023/05/30 08:15:11;;;;;;;6.65;2.67;;;;;;;;;;4837011;29;20056;-89
2023/05/30 08:17:44;;;;;;;6.85;2.92;;;;;;;;;;4833988;29;20480;-89
2023/05/30 08:20:19;;;;;;;9.05;2.60;;;;;;;;;;4831384;29;20058;-88
2023/05/30 08:22:45;;;;;;;5.00;2.03;;;;;;;;;;4847257;29;20048;-88
2023/05/30 08:25:17;;;;;;;6.07;2.90;;;;;;;;;;4833191;29;20053;-89
2023/05/30 08:27:48;;;;;;;4.50;2.47;;;;;;;;;;4828922;29;20049;-89
2023/05/30 08:30:22;;;;;;;4.28;2.60;;;;;;;;;;4858051;29;20076;-89
2023/05/30 08:33:15;;;;;;;5.78;2.83;;;;;;;;;;4859930;29;20044;-89
2023/05/30 08:35:45;;;;;;;4.78;2.42;;;;;;;;;;4832637;29;20514;-88
2023/05/30 08:38:13;;;;;;;5.35;2.28;;;;;;;;;;4855257;29;20166;-90
2023/05/30 08:40:45;;;;;;;5.30;2.55;;;;;;;;;;4836553;29;20167;-89
2023/05/30 08:43:14;;;;;;;4.20;2.53;;;;;;;;;;4831098;29;20520;-89
2023/05/30 08:45:48;;;;;;;5.25;2.17;;;;;;;;;;4829327;29;20099;-89
2023/05/30 08:48:27;;;;;;;4.35;2.00;;;;;;;;;;4837806;29;20040;-89
2023/05/30 08:58:29;;;;;;;3.42;2.15;;;;;;;;;;4867599;29;20499;-84
2023/05/30 09:01:03;;;;;;;3.92;2.28;;;;;;;;;;4893366;29;20120;-84
2023/05/30 09:03:54;;;;;;;4.60;2.10;;;;;;;;;;4867348;29;20156;-81
2023/05/30 09:14:48;;;;;;;;;;;;;;;;;;;;;
2023/05/30 09:18:16;;;;;;;3.30;2.00;;;;;;;;;;4890961;29;20538;-81
2023/05/30 09:21:15;;;;;;;3.70;1.75;;;;;;;;;;4869005;29;20052;-81
2023/05/30 09:27:26;;;;;;;;;;;;;;;;;;;;;
2023/05/30 09:30:09;;;;;;;2.65;1.92;;;;;;;;;;4858937;29;20402;-81
2023/05/30 09:40:15;;;;;;;2.63;2.00;;;;;;;;;;4824092;29;20049;-81
2023/05/30 09:43:11;;;;;;;4.88;1.90;;;;;;;;;;4844889;29;20046;-82
2023/05/30 09:46:35;;;;;;;;;;;;;;;;;;;;;
2023/05/30 09:49:29;;;;;;;5.05;2.30;;;;;;;;;;4846535;29;20128;-81
2023/05/30 09:52:35;;;;;;;;;;;;;;;;;;;;;
2023/05/30 10:01:59;;;;;;;3.92;2.28;;;;;;;;;;4834432;29;20135;-82
2023/05/30 10:08:24;;;;;;;;;;;;;;;;;;;;;
2023/05/30 10:11:35;;;;;;;;;;;;;;;;;;;;;
2023/05/30 10:14:43;;;;;;;1.60;1.50;;;;;;;;;;4821624;29;20091;-82
2023/05/30 10:20:56;;;;;;;2.15;1.08;;;;;;;;;;4832375;29;20685;-82
2023/05/30 10:23:57;;;;;;;1.30;1.20;;;;;;;;;;4825783;29;20053;-82
2023/05/30 10:27:04;;;;;;;2.10;1.20;;;;;;;;;;4863686;29;20497;-82
2023/05/30 10:29:53;;;;;;;2.95;1.23;;;;;;;;;;4851144;29;20067;-82
2023/05/30 10:32:42;;;;;;;1.38;1.25;;;;;;;;;;4829843;29;20049;-82
2023/05/30 10:35:50;;;;;;;1.80;1.10;;;;;;;;;;4890559;29;20565;-82
2023/05/30 10:38:57;;;;;;;;;;;;;;;;;;;;;
2023/05/30 10:41:48;;;;;;;1.33;1.13;;;;;;;;;;4881651;29;20513;-82
2023/05/30 11:01:07;;;;;;;1.38;1.00;;;;;;;;;;4781975;29;20039;-82
2023/05/30 11:03:56;;;;;;;1.40;1.30;;;;;;;;;;4751802;30;20059;-82
2023/05/30 11:07:09;;;;;;;1.77;1.52;;;;;;;;;;4753406;29;20248;-82
2023/05/30 11:09:55;;;;;;;3.67;1.30;;;;;;;;;;4737415;29;20529;-82
2023/05/30 11:13:06;;;;;;;;;;;;;;;;;;;;;
2023/05/30 11:19:40;;;;;;;2.45;1.48;;;;;;;;;;4817128;29;20571;-82
2023/05/30 11:26:01;;;;;;;;;;;;;;;;;;;;;
2023/05/30 11:43:18;;;;;;;1.20;1.20;;;;;;;;;;4789615;29;20053;-82
2023/05/30 11:53:36;;;;;;;;;;;;;;;;;;;;;
2023/05/30 12:03:16;;;;;;;2.97;1.50;;;;;;;;;;4673510;30;20558;-82
2023/05/30 12:10:38;;;;;;;2.20;1.23;;;;;;;;;;4733775;30;20059;-82
2023/05/30 12:14:24;;;;;;;;;;;;;;;;;;;;;
2023/05/30 12:17:24;;;;;;;3.20;1.85;;;;;;;;;;4695112;30;20143;-82
2023/05/30 12:24:17;;;;;;;;;;;;;;;;;;;;;
2023/05/30 12:27:06;;;;;;;1.60;1.50;;;;;;;;;;4810722;29;20140;-82
2023/05/30 12:32:56;;;;;;;1.65;1.40;;;;;;;;;;4763838;29;20055;-82
2023/05/30 12:35:58;;;;;;;1.77;1.30;;;;;;;;;;4738365;30;20489;-82
2023/05/30 12:42:49;;;;;;;2.00;1.30;;;;;;;;;;4687117;30;20485;-82
2023/05/30 12:45:50;;;;;;;2.45;1.40;;;;;;;;;;4700955;30;20138;-82
2023/05/30 12:52:45;;;;;;;2.03;1.30;;;;;;;;;;4663247;30;20053;-82
2023/05/30 13:02:14;;;;;;;1.85;0.98;;;;;;;;;;4751800;29;20079;-82
2023/05/30 13:05:47;;;;;;;;;;;;;;;;;;;;;
2023/05/30 13:15:17;;;;;;;1.92;1.30;;;;;;;;;;4769320;29;20108;-82
2023/05/30 13:18:48;;;;;;;2.45;1.38;;;;;;;;;;4817347;29;20119;-82
2023/05/30 13:29:37;;;;;;;1.45;1.20;;;;;;;;;;4772815;29;20087;-82
2023/05/30 13:36:07;;;;;;;1.45;1.35;;;;;;;;;;4780063;29;20603;-82
2023/05/30 13:42:42;;;;;;;;;;;;;;;;;;;;;
2023/05/30 13:45:18;;;;;;;1.75;1.60;;;;;;;;;;4755809;29;20051;-82
2023/05/30 13:48:15;;;;;;;2.25;1.30;;;;;;;;;;4801151;29;20041;-82
2023/05/30 13:51:34;;;;;;;1.67;1.25;;;;;;;;;;4822739;29;22317;-82
2023/05/30 14:01:19;;;;;;;1.52;1.40;;;;;;;;;;4801469;29;20220;-82
2023/05/30 14:04:20;;;;;;;1.60;1.50;;;;;;;;;;4815529;29;20080;-82
2023/05/30 14:08:19;;;;;;;;;;;;;;;;;;;;;
2023/05/30 14:10:54;;;;;;;3.35;1.40;;;;;;;;;;4844602;29;20097;-82
2023/05/30 14:13:50;;;;;;;2.25;1.73;;;;;;;;;;4811947;29;20054;-82
2023/05/30 14:26:48;;;;;;;;;;;;;;;;;;;;;
2023/05/30 14:29:20;;;;;;;1.98;1.77;;;;;;;;;;4707392;30;20439;-82
2023/05/30 14:31:59;;;;;;;2.25;1.67;;;;;;;;;;4689237;30;20167;-83
2023/05/30 14:35:37;;;;;;;2.25;1.23;;;;;;;;;;4722756;30;20052;-83
2023/05/30 14:38:54;;;;;;;6.63;1.60;;;;;;;;;;4730047;30;20064;-83
2023/05/30 14:41:59;;;;;;;1.50;1.40;;;;;;;;;;4714621;30;20080;-83
2023/05/30 14:45:08;;;;;;;1.92;1.42;;;;;;;;;;4730729;29;20048;-83
2023/05/30 14:48:32;;;;;;;;;;;;;;;;;;;;;
2023/05/30 14:51:27;;;;;;;4.38;1.60;;;;;;;;;;5429788;23;20060;-82
2023/05/30 14:54:31;;;;;;;2.05;1.38;;;;;;;;;;4787699;29;20084;-82
2023/05/30 14:57:44;;;;;;;3.15;1.60;;;;;;;;;;4758295;29;20047;-82
2023/05/30 15:04:19;;;;;;;;;;;;;;;;;;;;;
2023/05/30 15:07:21;;;;;;;1.77;1.33;;;;;;;;;;4788152;29;20162;-82
2023/05/30 15:10:34;;;;;;;5.32;1.30;;;;;;;;;;4784304;29;20048;-82
2023/05/30 15:13:36;;;;;;;;;;;;;;;;;;4787950;29;20046;-82
2023/05/30 15:17:05;;;;;;;;;;;;;;;;;;;;;
2023/05/30 15:19:56;;;;;;;;;;;;;;;;;;;;;
2023/05/30 15:23:08;;;;;;;;;;;;;;;;;;;;;
2023/05/30 15:32:49;;;;;;;;;;;;;;;;;;;;;
2023/05/30 15:35:45;;;;;;;1.30;1.17;;;;;;;;;;4714628;30;20049;-83
2023/05/30 15:39:03;;;;;;;;;;;;;;;;;;;;;
2023/05/30 15:42:09;;;;;;;2.42;1.20;;;;;;;;;;4705144;30;20047;-83
2023/05/30 15:45:42;;;;;;;;;;;;;;;;;;;;;
2023/05/30 15:48:50;;;;;;;3.40;1.50;;;;;;;;;;4738789;30;20065;-83
2023/05/30 15:51:23;;;;;;;1.65;1.40;;;;;;;;;;4741313;29;20150;-82
2023/05/30 15:57:48;;;;;;;3.25;1.63;;;;;;;;;;4787832;29;20145;-83
2023/05/30 16:00:27;;;;;;;2.53;1.52;;;;;;;;;;4791717;29;21057;-82
2023/05/30 16:03:02;;;;;;;2.58;1.38;;;;;;;;;;4808465;29;20498;-82
2023/05/30 16:05:32;;;;;;;4.72;2.05;;;;;;;;;;4827900;29;20806;-82
2023/05/30 16:08:14;;;;;;;7.22;1.83;;;;;;;;;;4810223;29;20534;-82
2023/05/30 16:10:45;;;;;;;5.00;1.98;;;;;;;;;;4801525;29;20061;-82
2023/05/30 16:16:31;;;;;;;3.17;1.98;;;;;;;;;;4852150;29;20056;-83
2023/05/30 16:19:14;;;;;;;5.40;1.95;;;;;;;;;;4821223;29;20140;-82
2023/05/30 16:21:54;;;;;;;4.80;1.75;;;;;;;;;;4844537;29;20062;-83
2023/05/30 16:28:16;;;;;;;4.07;1.80;;;;;;;;;;4818429;29;20054;-82
2023/05/30 16:37:28;;;;;;;3.35;1.92;;;;;;;;;;4762625;29;20097;-83
2023/05/30 16:40:14;;;;;;;2.05;1.52;;;;;;;;;;4837442;29;21581;-83
2023/05/30 16:46:33;;;;;;;1.70;1.60;;;;;;;;;;4798879;29;20698;-83
2023/05/30 16:49:37;;;;;;;2.55;1.70;;;;;;;;;;4823206;29;20533;-83
2023/05/30 16:52:26;;;;;;;2.75;2.10;;;;;;;;;;4833418;29;20371;-83
2023/05/30 16:55:28;;;;;;;2.13;1.45;;;;;;;;;;4821648;29;20554;-82
2023/05/30 17:02:01;;;;;;;2.15;1.88;;;;;;;;;;4854350;29;20476;-82
2023/05/30 17:04:55;;;;;;;3.03;1.50;;;;;;;;;;4833107;29;20870;-82
2023/05/30 17:07:44;;;;;;;2.28;1.60;;;;;;;;;;4814729;29;20518;-82
2023/05/30 17:11:08;;;;;;;3.72;1.58;;;;;;;;;;4818571;29;20038;-83
2023/05/30 17:13:45;;;;;;;2.33;1.90;;;;;;;;;;4814807;29;20042;-83
2023/05/30 18:22:25;;;;;;;3.20;2.53;;;;;;;;;;4827321;29;20057;-83
2023/05/30 18:28:57;;;;;;;2.83;2.13;;;;;;;;;;4758304;29;20473;-82
2023/05/30 18:38:48;;;;;;;;;;;;;;;;;;;;;
2023/05/30 18:42:16;;;;;;;;;;;;;;;;;;;;;
2023/05/30 18:45:36;;;;;;;2.83;2.03;;;;;;;;;;4761791;29;20105;-82
2023/05/30 18:48:46;;;;;;;2.60;2.20;;;;;;;;;;4676617;30;20061;-82
2023/05/30 18:52:15;;;;;;;4.90;2.85;;;;;;;;;;4660370;30;20141;-82
2023/05/30 18:57:54;;;;;;;3.50;2.60;;;;;;;;;;4709963;30;20696;-82
2023/05/30 19:00:48;;;;;;;3.60;2.60;;;;;;;;;;4680184;30;20072;-82
2023/05/30 19:14:03;;;;;;;3.03;2.70;;;;;;;;;;4763196;29;20138;-82
2023/05/30 19:16:56;;;;;;;4.47;2.90;;;;;;;;;;4754914;29;20116;-82
2023/05/30 19:19:27;;;;;;;4.47;2.67;;;;;;;;;;4770822;29;20061;-83
2023/05/30 19:22:13;;;;;;;5.35;2.72;;;;;;;;;;4772254;29;20061;-82
2023/05/30 19:24:39;;;;;;;3.95;2.53;;;;;;;;;;4780096;29;20043;-82
2023/05/30 19:27:05;;;;;;;3.30;2.58;;;;;;;;;;4780659;29;20142;-83
2023/05/30 19:29:39;;;;;;;3.72;2.50;;;;;;;;;;4838233;29;20127;-82
2023/05/30 19:32:08;;;;;;;3.75;2.70;;;;;;;;;;4854067;29;20382;-82
2023/05/30 19:34:48;;;;;;;4.93;2.67;;;;;;;;;;4866566;29;20040;-82
2023/05/30 19:37:15;;;;;;;3.88;2.40;;;;;;;;;;4892839;29;20063;-82
2023/05/30 19:39:48;;;;;;;5.13;2.70;;;;;;;;;;4851308;29;20071;-82
2023/05/30 19:42:23;;;;;;;6.72;2.83;;;;;;;;;;4864322;29;20424;-82
2023/05/30 19:48:18;;;;;;;5.05;2.90;;;;;;;;;;4780661;29;20041;-82
2023/05/30 19:50:58;;;;;;;5.15;2.75;;;;;;;;;;4787877;29;20146;-83
2023/05/30 19:53:44;;;;;;;4.63;2.92;;;;;;;;;;4854761;29;20052;-83
2023/05/30 19:56:11;;;;;;;5.82;2.70;;;;;;;;;;4860044;29;20575;-83
2023/05/30 19:58:43;;;;;;;3.55;2.67;;;;;;;;;;4860854;29;20040;-83
2023/05/30 20:01:18;;;;;;;2.97;2.35;;;;;;;;;;4841067;29;20051;-82
2023/05/30 20:04:30;;;;;;;;;;;;;;;;;;;;;
2023/05/30 20:07:15;;;;;;;3.38;2.45;;;;;;;;;;4850971;29;20049;-82
2023/05/30 20:09:52;;;;;;;4.53;2.85;;;;;;;;;;4823878;29;21999;-83
2023/05/30 20:12:20;;;;;;;5.43;2.50;;;;;;;;;;4822728;29;20060;-82
2023/05/30 20:14:46;;;;;;;5.07;2.90;;;;;;;;;;4821362;29;20133;-83
2023/05/30 20:17:20;;;;;;;2.78;2.45;;;;;;;;;;4842564;29;20045;-83
2023/05/30 20:20:02;;;;;;;3.72;2.63;;;;;;;;;;4841039;29;20045;-83
2023/05/30 20:22:43;;;;;;;5.65;2.35;;;;;;;;;;4836103;29;20044;-83
2023/05/30 20:25:14;;;;;;;4.35;3.00;;;;;;;;;;4828108;29;20068;-82
2023/05/30 20:27:41;;;;;;;3.47;2.50;;;;;;;;;;4834695;29;20045;-83
2023/05/30 20:30:07;;;;;;;3.03;2.75;;;;;;;;;;4842265;29;20037;-83
2023/05/30 20:32:33;;;;;;;4.50;2.75;;;;;;;;;;4821448;29;20510;-82
2023/05/30 20:34:59;;;;;;;4.53;2.63;;;;;;;;;;4826392;29;20136;-82
2023/05/30 20:37:29;;;;;;;6.03;3.03;;;;;;;;;;4824409;29;20053;-82
2023/05/30 20:40:02;;;;;;;4.68;2.92;;;;;;;;;;4839034;29;20049;-82
2023/05/30 20:42:41;;;;;;;;;;;;;;;;;;;;;
2023/05/30 20:45:15;;;;;;;4.20;3.17;;;;;;;;;;4875256;29;20453;-83
2023/05/30 20:48:09;;;;;;;;;;;;;;;;;;;;;
2023/05/30 21:04:38;;;;;;;4.43;3.15;;;;;;;;;;4803660;29;20473;-83
2023/05/30 21:07:45;;;;;;;5.32;3.33;;;;;;;;;;4785233;29;20057;-83
2023/05/30 21:17:17;;;;;;;4.55;3.58;;;;;;;;;;4835129;29;20048;-83
2023/05/30 21:20:22;;;;;;;4.75;3.20;;;;;;;;;;4796971;29;20063;-83
2023/05/30 21:23:39;;;;;;;;;;;;;;;;;;;;;
2023/05/30 21:26:41;;;;;;;3.80;3.40;;;;;;;;;;4807028;29;20747;-83
2023/05/30 21:29:55;;;;;;;4.93;3.47;;;;;;;;;;4801862;29;20250;-83
2023/05/30 21:32:55;;;;;;;3.30;2.70;;;;;;;;;;4803344;29;20141;-83
2023/05/30 21:36:05;;;;;;;5.35;3.30;;;;;;;;;;4775501;29;20046;-83
2023/05/30 21:38:40;;;;;;;5.43;3.33;;;;;;;;;;4769173;29;20650;-82
2023/05/30 21:41:50;;;;;;;;;;;;;;;;;;;;;
2023/05/30 21:45:05;;;;;;;5.18;2.97;;;;;;;;;;4773331;29;20111;-83
2023/05/30 21:48:02;;;;;;;4.47;3.00;;;;;;;;;;4762128;29;20084;-82
2023/05/30 21:51:09;;;;;;;3.65;2.80;;;;;;;;;;4837641;29;20088;-82
2023/05/30 21:53:38;;;;;;;5.35;2.90;;;;;;;;;;4839334;29;20063;-83
2023/05/30 21:56:20;;;;;;;5.20;3.20;;;;;;;;;;4863231;29;20523;-83
2023/05/30 21:58:59;;;;;;;4.35;2.70;;;;;;;;;;4858184;29;20068;-83
2023/05/30 22:01:39;;;;;;;3.55;3.10;;;;;;;;;;4845711;29;20068;-83
2023/05/30 22:04:11;;;;;;;3.30;2.40;;;;;;;;;;4853240;29;20111;-82
2023/05/30 22:09:57;;;;;;;4.95;3.05;;;;;;;;;;4848473;29;20116;-83
2023/05/30 22:12:41;;;;;;;4.47;2.70;;;;;;;;;;4837347;29;20128;-83
2023/05/30 22:15:24;;;;;;;4.13;2.55;;;;;;;;;;4840642;29;20076;-83
2023/05/30 22:18:04;;;;;;;4.95;3.28;;;;;;;;;;4796486;29;20121;-83
2023/05/30 22:20:40;;;;;;;4.60;2.90;;;;;;;;;;4810436;29;20533;-83
2023/05/30 22:23:37;;;;;;;5.60;2.90;;;;;;;;;;4803097;29;20054;-83
2023/05/30 22:36:34;;;;;;;7.90;3.50;;;;;;;;;;4819430;29;20048;-83
2023/05/30 22:39:45;;;;;;;6.40;3.55;;;;;;;;;;4784451;29;20049;-83
2023/05/30 22:42:41;;;;;;;4.57;3.92;;;;;;;;;;4769533;29;20067;-83
2023/05/30 22:45:21;;;;;;;10.93;3.72;;;;;;;;;;4752260;29;20058;-84
2023/05/30 22:51:36;;;;;;;7.38;3.83;;;;;;;;;;4832279;29;20138;-83
2023/05/30 22:54:35;;;;;;;5.82;3.50;;;;;;;;;;4839539;29;20044;-83